Terminal Aerodrome Forecast
Issued by NWS Twin Cities, MN

Home | Current Version | Previous Version | Graphics & Text | Print | Product List | Glossary On
Versions: 1 2 3 4 5 6 7 8 9 10 11 12 13 14
146
FTUS43 KMPX 221142
TAFSTC
TAF
KSTC 221142Z 2212/2312 03011KT P6SM OVC008
     FM222000 01014KT P6SM OVC010
     FM222100 01013KT P6SM VCSH OVC010
     FM222200 01013KT P6SM OVC010
     FM230400 35011KT P6SM BKN030
     FM230500 35010KT P6SM BKN035
     FM230800 34008KT P6SM SCT040=

USA.gov is the U.S. government's official web portal to all federal, state and local government web resources and services.